This is the latest recevied weather packets stored in our database for station/object SA7BGG-5. If no packets are shown the sender has not sent any weather packets the latest 10 day(s).
| Time | Temp. | Humidity | Pressure | Rain* | Wind** | Luminosity | Snow |
|---|---|---|---|---|---|---|---|
| 1777980004 | 16.67° C | 47% | 1014 hPa | - | - | - | - |
| 1777979704 | 16.67° C | 49% | 1014 hPa | - | - | - | - |
| 1777979403 | 16.67° C | 49% | 1014 hPa | - | - | - | - |
| 1777979103 | 16.11° C | 51% | 1014 hPa | - | - | - | - |
| 1777978802 | 16.11° C | 51% | 1014 hPa | - | - | - | - |
| 1777978502 | 16.11° C | 51% | 1015 hPa | - | - | - | - |
| 1777978202 | 16.11° C | 51% | 1015 hPa | - | - | - | - |
| 1777977901 | 16.11° C | 52% | 1015 hPa | - | - | - | - |
| 1777977601 | 16.11° C | 52% | 1015 hPa | - | - | - | - |
| 1777977301 | 15.56° C | 50% | 1015 hPa | - | - | - | - |
| 1777977000 | 15.56° C | 50% | 1015 hPa | - | - | - | - |
| 1777976705 | 15.56° C | 52% | 1015 hPa | - | - | - | - |
| 1777976404 | 15.56° C | 52% | 1015 hPa | - | - | - | - |
| 1777976104 | 15° C | 56% | 1015 hPa | - | - | - | - |
| 1777975804 | 15° C | 56% | 1015 hPa | - | - | - | - |
| 1777975503 | 15° C | 55% | 1015 hPa | - | - | - | - |
| 1777975203 | 15° C | 55% | 1015 hPa | - | - | - | - |
| 1777974902 | 15° C | 54% | 1015 hPa | - | - | - | - |
| 1777974602 | 15° C | 54% | 1015 hPa | - | - | - | - |
| 1777974301 | 15° C | 55% | 1015 hPa | - | - | - | - |
| 1777974001 | 15° C | 55% | 1015 hPa | - | - | - | - |
| 1777973701 | 15.56° C | 55% | 1015 hPa | - | - | - | - |
| 1777973400 | 15.56° C | 55% | 1015 hPa | - | - | - | - |
| 1777973105 | 14.44° C | 59% | 1015 hPa | - | - | - | - |
| 1777972804 | 14.44° C | 59% | 1015 hPa | - | - | - | - |
* Rain since midnight (hover to see other rain measurements)
** Current wind speed in m/s (hover to see current wind gust speed)